sensor_id;sensor_type;location;lat;lon;timestamp;P1;durP1;ratioP1;P2;durP2;ratioP2
12433;SDS011;6281;49.038;8.372;2022-11-25T00:01:11;7.43;;;4.73;;
12433;SDS011;6281;49.038;8.372;2022-11-25T00:03:40;6.40;;;4.33;;
12433;SDS011;6281;49.038;8.372;2022-11-25T00:06:09;5.73;;;4.23;;
12433;SDS011;6281;49.038;8.372;2022-11-25T00:08:37;4.60;;;4.07;;
12433;SDS011;6281;49.038;8.372;2022-11-25T00:11:05;7.83;;;4.77;;
12433;SDS011;6281;49.038;8.372;2022-11-25T00:13:37;8.30;;;4.67;;
12433;SDS011;6281;49.038;8.372;2022-11-25T00:16:08;9.57;;;4.50;;
12433;SDS011;6281;49.038;8.372;2022-11-25T00:18:36;6.17;;;4.30;;
12433;SDS011;6281;49.038;8.372;2022-11-25T00:21:04;8.57;;;4.60;;
12433;SDS011;6281;49.038;8.372;2022-11-25T00:23:32;7.00;;;4.43;;
12433;SDS011;6281;49.038;8.372;2022-11-25T00:26:04;6.70;;;4.30;;
12433;SDS011;6281;49.038;8.372;2022-11-25T00:28:41;7.70;;;3.87;;
12433;SDS011;6281;49.038;8.372;2022-11-25T00:31:10;6.50;;;4.37;;
12433;SDS011;6281;49.038;8.372;2022-11-25T00:33:38;7.60;;;4.20;;
12433;SDS011;6281;49.038;8.372;2022-11-25T00:36:07;8.87;;;4.70;;
12433;SDS011;6281;49.038;8.372;2022-11-25T00:38:40;9.10;;;4.27;;
12433;SDS011;6281;49.038;8.372;2022-11-25T00:41:07;7.13;;;4.10;;
12433;SDS011;6281;49.038;8.372;2022-11-25T00:43:53;7.57;;;4.33;;
12433;SDS011;6281;49.038;8.372;2022-11-25T00:46:37;9.47;;;4.33;;
12433;SDS011;6281;49.038;8.372;2022-11-25T00:49:04;7.13;;;4.30;;
12433;SDS011;6281;49.038;8.372;2022-11-25T00:51:31;7.60;;;4.10;;
12433;SDS011;6281;49.038;8.372;2022-11-25T00:53:58;7.83;;;4.20;;
12433;SDS011;6281;49.038;8.372;2022-11-25T00:56:25;6.83;;;4.40;;
12433;SDS011;6281;49.038;8.372;2022-11-25T00:58:53;7.53;;;4.70;;
12433;SDS011;6281;49.038;8.372;2022-11-25T01:01:21;8.37;;;4.23;;
12433;SDS011;6281;49.038;8.372;2022-11-25T01:03:48;8.03;;;3.97;;
12433;SDS011;6281;49.038;8.372;2022-11-25T01:06:16;7.40;;;3.40;;
12433;SDS011;6281;49.038;8.372;2022-11-25T01:08:43;7.43;;;4.47;;
12433;SDS011;6281;49.038;8.372;2022-11-25T01:11:11;8.37;;;4.23;;
12433;SDS011;6281;49.038;8.372;2022-11-25T01:13:40;6.37;;;3.70;;
12433;SDS011;6281;49.038;8.372;2022-11-25T01:16:10;6.43;;;3.93;;
12433;SDS011;6281;49.038;8.372;2022-11-25T01:18:38;5.20;;;3.90;;
12433;SDS011;6281;49.038;8.372;2022-11-25T01:21:05;7.17;;;4.23;;
12433;SDS011;6281;49.038;8.372;2022-11-25T01:23:33;8.77;;;4.73;;
12433;SDS011;6281;49.038;8.372;2022-11-25T01:26:01;5.60;;;4.23;;
12433;SDS011;6281;49.038;8.372;2022-11-25T01:28:29;9.07;;;4.00;;
12433;SDS011;6281;49.038;8.372;2022-11-25T01:31:00;6.77;;;3.87;;
12433;SDS011;6281;49.038;8.372;2022-11-25T01:33:30;6.83;;;4.43;;
12433;SDS011;6281;49.038;8.372;2022-11-25T01:35:59;5.47;;;4.10;;
12433;SDS011;6281;49.038;8.372;2022-11-25T01:38:27;8.27;;;4.20;;
12433;SDS011;6281;49.038;8.372;2022-11-25T01:40:54;5.83;;;3.83;;
12433;SDS011;6281;49.038;8.372;2022-11-25T01:43:21;5.23;;;3.67;;
12433;SDS011;6281;49.038;8.372;2022-11-25T01:45:48;6.13;;;3.90;;
12433;SDS011;6281;49.038;8.372;2022-11-25T01:48:17;6.47;;;4.13;;
12433;SDS011;6281;49.038;8.372;2022-11-25T01:50:48;8.13;;;4.40;;
12433;SDS011;6281;49.038;8.372;2022-11-25T01:53:16;8.00;;;4.37;;
12433;SDS011;6281;49.038;8.372;2022-11-25T01:55:46;8.13;;;4.33;;
12433;SDS011;6281;49.038;8.372;2022-11-25T01:58:17;6.07;;;3.73;;
12433;SDS011;6281;49.038;8.372;2022-11-25T02:00:47;5.77;;;4.10;;
12433;SDS011;6281;49.038;8.372;2022-11-25T02:03:17;7.80;;;4.20;;
12433;SDS011;6281;49.038;8.372;2022-11-25T02:05:49;9.00;;;4.30;;
12433;SDS011;6281;49.038;8.372;2022-11-25T02:08:22;8.07;;;4.10;;
12433;SDS011;6281;49.038;8.372;2022-11-25T02:10:50;6.13;;;4.37;;
12433;SDS011;6281;49.038;8.372;2022-11-25T02:13:19;5.97;;;4.67;;
12433;SDS011;6281;49.038;8.372;2022-11-25T02:15:47;7.07;;;4.30;;
12433;SDS011;6281;49.038;8.372;2022-11-25T02:18:15;11.20;;;4.43;;
12433;SDS011;6281;49.038;8.372;2022-11-25T02:20:42;10.17;;;4.73;;
12433;SDS011;6281;49.038;8.372;2022-11-25T02:23:14;7.50;;;5.03;;
12433;SDS011;6281;49.038;8.372;2022-11-25T02:25:51;8.10;;;4.77;;
12433;SDS011;6281;49.038;8.372;2022-11-25T02:28:19;12.67;;;5.17;;
12433;SDS011;6281;49.038;8.372;2022-11-25T02:30:47;11.93;;;5.43;;
12433;SDS011;6281;49.038;8.372;2022-11-25T02:33:15;8.43;;;4.77;;
12433;SDS011;6281;49.038;8.372;2022-11-25T02:35:42;6.90;;;4.37;;
12433;SDS011;6281;49.038;8.372;2022-11-25T02:38:14;6.13;;;3.83;;
12433;SDS011;6281;49.038;8.372;2022-11-25T02:40:45;6.70;;;4.37;;
12433;SDS011;6281;49.038;8.372;2022-11-25T02:43:16;7.47;;;4.17;;
12433;SDS011;6281;49.038;8.372;2022-11-25T02:45:48;5.97;;;4.10;;
12433;SDS011;6281;49.038;8.372;2022-11-25T02:48:22;6.63;;;4.03;;
12433;SDS011;6281;49.038;8.372;2022-11-25T02:50:49;5.70;;;4.30;;
12433;SDS011;6281;49.038;8.372;2022-11-25T02:53:16;5.87;;;3.90;;
12433;SDS011;6281;49.038;8.372;2022-11-25T02:55:44;6.77;;;4.40;;
12433;SDS011;6281;49.038;8.372;2022-11-25T02:58:11;7.70;;;4.73;;
12433;SDS011;6281;49.038;8.372;2022-11-25T03:00:40;5.20;;;4.20;;
12433;SDS011;6281;49.038;8.372;2022-11-25T03:03:07;10.10;;;4.40;;
12433;SDS011;6281;49.038;8.372;2022-11-25T03:05:34;5.93;;;3.50;;
12433;SDS011;6281;49.038;8.372;2022-11-25T03:08:01;7.63;;;4.17;;
12433;SDS011;6281;49.038;8.372;2022-11-25T03:10:29;7.70;;;3.73;;
12433;SDS011;6281;49.038;8.372;2022-11-25T03:12:56;5.57;;;3.70;;
12433;SDS011;6281;49.038;8.372;2022-11-25T03:15:23;5.60;;;3.83;;
12433;SDS011;6281;49.038;8.372;2022-11-25T03:17:52;7.77;;;3.87;;
12433;SDS011;6281;49.038;8.372;2022-11-25T03:20:19;6.83;;;4.03;;
12433;SDS011;6281;49.038;8.372;2022-11-25T03:22:46;6.33;;;3.57;;
12433;SDS011;6281;49.038;8.372;2022-11-25T03:25:13;4.90;;;3.50;;
12433;SDS011;6281;49.038;8.372;2022-11-25T03:27:41;8.63;;;4.33;;
12433;SDS011;6281;49.038;8.372;2022-11-25T03:30:09;4.97;;;3.83;;
12433;SDS011;6281;49.038;8.372;2022-11-25T03:32:41;4.53;;;3.40;;
12433;SDS011;6281;49.038;8.372;2022-11-25T03:35:10;7.77;;;3.33;;
12433;SDS011;6281;49.038;8.372;2022-11-25T03:37:37;6.07;;;3.20;;
12433;SDS011;6281;49.038;8.372;2022-11-25T03:40:05;11.00;;;4.00;;
12433;SDS011;6281;49.038;8.372;2022-11-25T03:42:33;6.30;;;3.63;;
12433;SDS011;6281;49.038;8.372;2022-11-25T03:45:00;6.83;;;3.57;;
12433;SDS011;6281;49.038;8.372;2022-11-25T03:47:27;6.50;;;3.47;;
12433;SDS011;6281;49.038;8.372;2022-11-25T03:49:54;6.67;;;3.93;;
12433;SDS011;6281;49.038;8.372;2022-11-25T03:52:22;7.87;;;3.47;;
12433;SDS011;6281;49.038;8.372;2022-11-25T03:54:50;4.83;;;3.40;;
12433;SDS011;6281;49.038;8.372;2022-11-25T03:57:17;6.93;;;3.53;;
12433;SDS011;6281;49.038;8.372;2022-11-25T03:59:44;6.47;;;3.73;;
12433;SDS011;6281;49.038;8.372;2022-11-25T04:02:11;8.53;;;3.20;;
12433;SDS011;6281;49.038;8.372;2022-11-25T04:04:38;6.03;;;3.10;;
12433;SDS011;6281;49.038;8.372;2022-11-25T04:07:05;6.73;;;3.27;;
12433;SDS011;6281;49.038;8.372;2022-11-25T04:09:33;7.43;;;3.60;;
12433;SDS011;6281;49.038;8.372;2022-11-25T04:12:00;5.60;;;3.40;;
12433;SDS011;6281;49.038;8.372;2022-11-25T04:14:44;5.57;;;3.37;;
12433;SDS011;6281;49.038;8.372;2022-11-25T04:17:11;5.97;;;3.40;;
12433;SDS011;6281;49.038;8.372;2022-11-25T04:19:38;6.53;;;3.33;;
12433;SDS011;6281;49.038;8.372;2022-11-25T04:22:05;5.40;;;3.40;;
12433;SDS011;6281;49.038;8.372;2022-11-25T04:24:34;5.73;;;3.73;;
12433;SDS011;6281;49.038;8.372;2022-11-25T04:27:01;4.67;;;3.27;;
12433;SDS011;6281;49.038;8.372;2022-11-25T04:29:27;5.87;;;3.30;;
12433;SDS011;6281;49.038;8.372;2022-11-25T04:31:54;6.63;;;3.33;;
12433;SDS011;6281;49.038;8.372;2022-11-25T04:34:22;5.67;;;3.10;;
12433;SDS011;6281;49.038;8.372;2022-11-25T04:36:49;5.40;;;3.50;;
12433;SDS011;6281;49.038;8.372;2022-11-25T04:39:16;7.33;;;3.30;;
12433;SDS011;6281;49.038;8.372;2022-11-25T04:41:45;5.13;;;3.40;;
12433;SDS011;6281;49.038;8.372;2022-11-25T04:44:12;4.90;;;3.30;;
12433;SDS011;6281;49.038;8.372;2022-11-25T04:46:39;7.53;;;3.43;;
12433;SDS011;6281;49.038;8.372;2022-11-25T04:49:08;5.70;;;3.13;;
12433;SDS011;6281;49.038;8.372;2022-11-25T04:51:36;5.17;;;3.30;;
12433;SDS011;6281;49.038;8.372;2022-11-25T04:54:03;5.17;;;2.93;;
12433;SDS011;6281;49.038;8.372;2022-11-25T04:56:29;5.17;;;3.43;;
12433;SDS011;6281;49.038;8.372;2022-11-25T04:58:58;4.20;;;2.93;;
12433;SDS011;6281;49.038;8.372;2022-11-25T05:01:42;5.57;;;2.90;;
12433;SDS011;6281;49.038;8.372;2022-11-25T05:04:09;6.53;;;3.30;;
12433;SDS011;6281;49.038;8.372;2022-11-25T05:06:36;4.37;;;2.90;;
12433;SDS011;6281;49.038;8.372;2022-11-25T05:09:03;6.87;;;3.00;;
12433;SDS011;6281;49.038;8.372;2022-11-25T05:11:30;4.77;;;3.00;;
12433;SDS011;6281;49.038;8.372;2022-11-25T05:13:59;7.70;;;3.30;;
12433;SDS011;6281;49.038;8.372;2022-11-25T05:16:26;6.63;;;3.30;;
12433;SDS011;6281;49.038;8.372;2022-11-25T05:18:54;5.30;;;3.40;;
12433;SDS011;6281;49.038;8.372;2022-11-25T05:21:21;5.93;;;3.80;;
12433;SDS011;6281;49.038;8.372;2022-11-25T05:23:48;6.73;;;3.83;;
12433;SDS011;6281;49.038;8.372;2022-11-25T05:26:15;5.63;;;3.70;;
12433;SDS011;6281;49.038;8.372;2022-11-25T05:28:41;7.67;;;3.87;;
12433;SDS011;6281;49.038;8.372;2022-11-25T05:33:37;4.63;;;3.00;;
12433;SDS011;6281;49.038;8.372;2022-11-25T05:36:04;5.03;;;3.47;;
12433;SDS011;6281;49.038;8.372;2022-11-25T05:38:32;4.17;;;3.00;;
12433;SDS011;6281;49.038;8.372;2022-11-25T05:40:59;5.47;;;2.97;;
12433;SDS011;6281;49.038;8.372;2022-11-25T05:43:27;3.93;;;2.60;;
12433;SDS011;6281;49.038;8.372;2022-11-25T05:45:54;5.77;;;3.30;;
12433;SDS011;6281;49.038;8.372;2022-11-25T05:48:21;5.13;;;2.90;;
12433;SDS011;6281;49.038;8.372;2022-11-25T05:50:49;6.93;;;3.40;;
12433;SDS011;6281;49.038;8.372;2022-11-25T05:53:16;6.17;;;3.20;;
12433;SDS011;6281;49.038;8.372;2022-11-25T05:55:43;4.50;;;3.20;;
12433;SDS011;6281;49.038;8.372;2022-11-25T05:58:18;5.47;;;3.17;;
12433;SDS011;6281;49.038;8.372;2022-11-25T06:00:45;6.30;;;3.33;;
12433;SDS011;6281;49.038;8.372;2022-11-25T06:03:12;4.97;;;3.33;;
12433;SDS011;6281;49.038;8.372;2022-11-25T06:05:39;5.07;;;3.37;;
12433;SDS011;6281;49.038;8.372;2022-11-25T06:08:07;3.67;;;2.97;;
12433;SDS011;6281;49.038;8.372;2022-11-25T06:10:36;5.73;;;3.17;;
12433;SDS011;6281;49.038;8.372;2022-11-25T06:13:04;5.20;;;3.53;;
12433;SDS011;6281;49.038;8.372;2022-11-25T06:15:31;5.97;;;3.20;;
12433;SDS011;6281;49.038;8.372;2022-11-25T06:17:58;5.20;;;3.00;;
12433;SDS011;6281;49.038;8.372;2022-11-25T06:20:25;4.53;;;3.10;;
12433;SDS011;6281;49.038;8.372;2022-11-25T06:22:52;4.93;;;2.73;;
12433;SDS011;6281;49.038;8.372;2022-11-25T06:25:20;5.03;;;3.20;;
12433;SDS011;6281;49.038;8.372;2022-11-25T06:27:47;7.07;;;3.50;;
12433;SDS011;6281;49.038;8.372;2022-11-25T06:30:14;6.27;;;3.27;;
12433;SDS011;6281;49.038;8.372;2022-11-25T06:32:42;5.67;;;3.40;;
12433;SDS011;6281;49.038;8.372;2022-11-25T06:35:09;4.17;;;3.03;;
12433;SDS011;6281;49.038;8.372;2022-11-25T06:37:36;7.20;;;3.30;;
12433;SDS011;6281;49.038;8.372;2022-11-25T06:40:04;4.13;;;3.20;;
12433;SDS011;6281;49.038;8.372;2022-11-25T06:42:33;6.23;;;3.37;;
12433;SDS011;6281;49.038;8.372;2022-11-25T06:45:00;7.30;;;3.53;;
12433;SDS011;6281;49.038;8.372;2022-11-25T06:47:27;5.93;;;3.53;;
12433;SDS011;6281;49.038;8.372;2022-11-25T06:49:54;4.57;;;3.20;;
12433;SDS011;6281;49.038;8.372;2022-11-25T06:52:21;4.73;;;3.03;;
12433;SDS011;6281;49.038;8.372;2022-11-25T06:54:49;6.43;;;3.57;;
12433;SDS011;6281;49.038;8.372;2022-11-25T06:57:18;6.87;;;3.40;;
12433;SDS011;6281;49.038;8.372;2022-11-25T06:59:46;4.57;;;3.30;;
12433;SDS011;6281;49.038;8.372;2022-11-25T07:02:13;7.20;;;3.73;;
12433;SDS011;6281;49.038;8.372;2022-11-25T07:04:40;5.17;;;3.53;;
12433;SDS011;6281;49.038;8.372;2022-11-25T07:07:08;4.90;;;3.27;;
12433;SDS011;6281;49.038;8.372;2022-11-25T07:09:36;9.13;;;3.53;;
12433;SDS011;6281;49.038;8.372;2022-11-25T07:12:03;6.43;;;3.63;;
12433;SDS011;6281;49.038;8.372;2022-11-25T07:14:30;6.07;;;3.43;;
12433;SDS011;6281;49.038;8.372;2022-11-25T07:16:59;5.03;;;2.67;;
12433;SDS011;6281;49.038;8.372;2022-11-25T07:19:26;4.90;;;3.57;;
12433;SDS011;6281;49.038;8.372;2022-11-25T07:21:57;4.93;;;3.30;;
12433;SDS011;6281;49.038;8.372;2022-11-25T07:24:24;6.87;;;3.60;;
12433;SDS011;6281;49.038;8.372;2022-11-25T07:26:51;9.87;;;3.93;;
12433;SDS011;6281;49.038;8.372;2022-11-25T07:29:18;7.63;;;3.97;;
12433;SDS011;6281;49.038;8.372;2022-11-25T07:31:45;9.03;;;3.50;;
12433;SDS011;6281;49.038;8.372;2022-11-25T07:34:14;6.77;;;3.97;;
12433;SDS011;6281;49.038;8.372;2022-11-25T07:36:43;7.63;;;3.50;;
12433;SDS011;6281;49.038;8.372;2022-11-25T07:39:10;8.70;;;3.40;;
12433;SDS011;6281;49.038;8.372;2022-11-25T07:41:40;6.77;;;3.47;;
12433;SDS011;6281;49.038;8.372;2022-11-25T07:44:09;7.00;;;3.40;;
12433;SDS011;6281;49.038;8.372;2022-11-25T07:46:37;5.50;;;3.47;;
12433;SDS011;6281;49.038;8.372;2022-11-25T07:49:06;5.33;;;3.47;;
12433;SDS011;6281;49.038;8.372;2022-11-25T07:51:37;6.80;;;3.57;;
12433;SDS011;6281;49.038;8.372;2022-11-25T07:54:06;8.47;;;3.50;;
12433;SDS011;6281;49.038;8.372;2022-11-25T07:56:35;7.60;;;3.77;;
12433;SDS011;6281;49.038;8.372;2022-11-25T07:59:03;4.83;;;3.23;;
12433;SDS011;6281;49.038;8.372;2022-11-25T08:01:30;6.17;;;3.20;;
12433;SDS011;6281;49.038;8.372;2022-11-25T08:03:57;7.07;;;3.10;;
12433;SDS011;6281;49.038;8.372;2022-11-25T08:06:25;6.93;;;3.50;;
12433;SDS011;6281;49.038;8.372;2022-11-25T08:08:55;6.47;;;3.40;;
12433;SDS011;6281;49.038;8.372;2022-11-25T08:11:23;6.37;;;3.30;;
12433;SDS011;6281;49.038;8.372;2022-11-25T08:13:52;8.53;;;3.47;;
12433;SDS011;6281;49.038;8.372;2022-11-25T08:16:20;7.03;;;3.20;;
12433;SDS011;6281;49.038;8.372;2022-11-25T08:18:48;8.20;;;3.43;;
12433;SDS011;6281;49.038;8.372;2022-11-25T08:21:16;6.87;;;3.57;;
12433;SDS011;6281;49.038;8.372;2022-11-25T08:23:44;7.47;;;3.57;;
12433;SDS011;6281;49.038;8.372;2022-11-25T08:26:14;6.43;;;3.00;;
12433;SDS011;6281;49.038;8.372;2022-11-25T08:28:43;7.33;;;3.27;;
12433;SDS011;6281;49.038;8.372;2022-11-25T08:31:13;6.20;;;3.50;;
12433;SDS011;6281;49.038;8.372;2022-11-25T08:33:42;6.90;;;3.47;;
12433;SDS011;6281;49.038;8.372;2022-11-25T08:36:09;5.63;;;3.10;;
12433;SDS011;6281;49.038;8.372;2022-11-25T08:38:37;5.73;;;3.00;;
12433;SDS011;6281;49.038;8.372;2022-11-25T08:41:07;6.40;;;3.40;;
12433;SDS011;6281;49.038;8.372;2022-11-25T08:43:37;5.73;;;3.10;;
12433;SDS011;6281;49.038;8.372;2022-11-25T08:46:08;8.57;;;3.20;;
12433;SDS011;6281;49.038;8.372;2022-11-25T08:48:36;5.80;;;3.20;;
12433;SDS011;6281;49.038;8.372;2022-11-25T08:51:06;8.67;;;3.90;;
12433;SDS011;6281;49.038;8.372;2022-11-25T08:53:35;9.20;;;2.83;;
12433;SDS011;6281;49.038;8.372;2022-11-25T08:56:02;4.57;;;2.40;;
12433;SDS011;6281;49.038;8.372;2022-11-25T08:58:30;5.37;;;2.57;;
12433;SDS011;6281;49.038;8.372;2022-11-25T09:00:59;8.93;;;2.77;;
12433;SDS011;6281;49.038;8.372;2022-11-25T09:03:26;8.53;;;3.10;;
12433;SDS011;6281;49.038;8.372;2022-11-25T09:05:56;3.93;;;2.70;;
12433;SDS011;6281;49.038;8.372;2022-11-25T09:08:24;6.60;;;3.10;;
12433;SDS011;6281;49.038;8.372;2022-11-25T09:10:51;8.40;;;3.00;;
12433;SDS011;6281;49.038;8.372;2022-11-25T09:13:18;4.77;;;2.97;;
12433;SDS011;6281;49.038;8.372;2022-11-25T09:15:45;9.83;;;3.07;;
12433;SDS011;6281;49.038;8.372;2022-11-25T09:18:13;6.20;;;3.10;;
12433;SDS011;6281;49.038;8.372;2022-11-25T09:20:43;4.97;;;3.07;;
12433;SDS011;6281;49.038;8.372;2022-11-25T09:23:10;6.70;;;2.73;;
12433;SDS011;6281;49.038;8.372;2022-11-25T09:25:37;6.33;;;3.43;;
12433;SDS011;6281;49.038;8.372;2022-11-25T09:28:04;9.77;;;3.33;;
12433;SDS011;6281;49.038;8.372;2022-11-25T09:30:31;2.93;;;1.93;;
12433;SDS011;6281;49.038;8.372;2022-11-25T09:32:58;6.03;;;3.00;;
12433;SDS011;6281;49.038;8.372;2022-11-25T09:35:27;11.40;;;3.93;;
12433;SDS011;6281;49.038;8.372;2022-11-25T09:37:53;4.40;;;2.67;;
12433;SDS011;6281;49.038;8.372;2022-11-25T09:40:24;10.70;;;3.87;;
12433;SDS011;6281;49.038;8.372;2022-11-25T09:43:01;8.37;;;2.90;;
12433;SDS011;6281;49.038;8.372;2022-11-25T09:45:55;7.47;;;3.67;;
12433;SDS011;6281;49.038;8.372;2022-11-25T09:48:47;8.07;;;2.93;;
12433;SDS011;6281;49.038;8.372;2022-11-25T09:51:28;9.30;;;3.80;;
12433;SDS011;6281;49.038;8.372;2022-11-25T09:54:06;6.67;;;3.50;;
12433;SDS011;6281;49.038;8.372;2022-11-25T09:56:39;9.53;;;3.87;;
12433;SDS011;6281;49.038;8.372;2022-11-25T09:59:09;7.20;;;3.93;;
12433;SDS011;6281;49.038;8.372;2022-11-25T10:01:43;9.17;;;4.20;;
12433;SDS011;6281;49.038;8.372;2022-11-25T10:04:14;7.80;;;4.37;;
12433;SDS011;6281;49.038;8.372;2022-11-25T10:06:49;8.97;;;4.50;;
12433;SDS011;6281;49.038;8.372;2022-11-25T10:09:20;9.30;;;4.70;;
12433;SDS011;6281;49.038;8.372;2022-11-25T10:11:51;8.23;;;4.23;;
12433;SDS011;6281;49.038;8.372;2022-11-25T10:14:25;6.97;;;3.90;;
12433;SDS011;6281;49.038;8.372;2022-11-25T10:16:57;7.97;;;4.53;;
12433;SDS011;6281;49.038;8.372;2022-11-25T10:19:35;5.97;;;4.17;;
12433;SDS011;6281;49.038;8.372;2022-11-25T10:22:16;11.07;;;4.30;;
12433;SDS011;6281;49.038;8.372;2022-11-25T10:24:50;6.70;;;4.60;;
12433;SDS011;6281;49.038;8.372;2022-11-25T10:27:21;7.87;;;3.83;;
12433;SDS011;6281;49.038;8.372;2022-11-25T10:29:55;9.30;;;4.70;;
12433;SDS011;6281;49.038;8.372;2022-11-25T10:32:29;8.70;;;4.50;;
12433;SDS011;6281;49.038;8.372;2022-11-25T10:35:03;7.43;;;4.97;;
12433;SDS011;6281;49.038;8.372;2022-11-25T10:37:39;12.17;;;4.77;;
12433;SDS011;6281;49.038;8.372;2022-11-25T10:40:13;11.70;;;4.87;;
12433;SDS011;6281;49.038;8.372;2022-11-25T10:42:41;6.93;;;4.17;;
12433;SDS011;6281;49.038;8.372;2022-11-25T10:45:09;8.77;;;4.60;;
12433;SDS011;6281;49.038;8.372;2022-11-25T10:47:42;11.50;;;5.20;;
12433;SDS011;6281;49.038;8.372;2022-11-25T10:50:19;9.20;;;4.13;;
12433;SDS011;6281;49.038;8.372;2022-11-25T10:52:56;11.23;;;5.23;;
12433;SDS011;6281;49.038;8.372;2022-11-25T10:55:26;11.77;;;5.17;;
12433;SDS011;6281;49.038;8.372;2022-11-25T10:57:55;10.13;;;5.80;;
12433;SDS011;6281;49.038;8.372;2022-11-25T11:00:25;10.73;;;5.80;;
12433;SDS011;6281;49.038;8.372;2022-11-25T11:02:55;11.13;;;5.20;;
12433;SDS011;6281;49.038;8.372;2022-11-25T11:05:23;12.37;;;5.17;;
12433;SDS011;6281;49.038;8.372;2022-11-25T11:08:12;9.77;;;4.90;;
12433;SDS011;6281;49.038;8.372;2022-11-25T11:10:43;13.07;;;6.13;;
12433;SDS011;6281;49.038;8.372;2022-11-25T11:13:20;9.63;;;5.53;;
12433;SDS011;6281;49.038;8.372;2022-11-25T11:15:50;9.43;;;5.60;;
12433;SDS011;6281;49.038;8.372;2022-11-25T11:18:25;11.83;;;5.43;;
12433;SDS011;6281;49.038;8.372;2022-11-25T11:20:54;8.93;;;5.20;;
12433;SDS011;6281;49.038;8.372;2022-11-25T11:23:24;13.10;;;5.23;;
12433;SDS011;6281;49.038;8.372;2022-11-25T11:25:54;7.67;;;5.40;;
12433;SDS011;6281;49.038;8.372;2022-11-25T11:28:27;11.67;;;6.07;;
12433;SDS011;6281;49.038;8.372;2022-11-25T11:30:58;10.83;;;5.50;;
12433;SDS011;6281;49.038;8.372;2022-11-25T11:33:28;9.70;;;5.10;;
12433;SDS011;6281;49.038;8.372;2022-11-25T11:36:00;11.63;;;5.37;;
12433;SDS011;6281;49.038;8.372;2022-11-25T11:38:43;11.73;;;5.40;;
12433;SDS011;6281;49.038;8.372;2022-11-25T11:41:18;9.87;;;5.23;;
12433;SDS011;6281;49.038;8.372;2022-11-25T11:43:58;9.20;;;5.13;;
12433;SDS011;6281;49.038;8.372;2022-11-25T11:49:48;11.50;;;4.60;;
12433;SDS011;6281;49.038;8.372;2022-11-25T11:52:36;9.63;;;5.50;;
12433;SDS011;6281;49.038;8.372;2022-11-25T11:55:16;10.93;;;6.00;;
12433;SDS011;6281;49.038;8.372;2022-11-25T11:57:53;7.67;;;5.60;;
12433;SDS011;6281;49.038;8.372;2022-11-25T12:00:28;9.03;;;5.53;;
12433;SDS011;6281;49.038;8.372;2022-11-25T12:03:03;10.10;;;5.47;;
12433;SDS011;6281;49.038;8.372;2022-11-25T12:05:34;8.87;;;6.00;;
12433;SDS011;6281;49.038;8.372;2022-11-25T12:08:04;9.33;;;5.03;;
12433;SDS011;6281;49.038;8.372;2022-11-25T12:10:37;11.20;;;5.53;;
12433;SDS011;6281;49.038;8.372;2022-11-25T12:13:11;9.50;;;5.17;;
12433;SDS011;6281;49.038;8.372;2022-11-25T12:15:46;6.67;;;4.73;;
12433;SDS011;6281;49.038;8.372;2022-11-25T12:18:19;8.90;;;5.40;;
12433;SDS011;6281;49.038;8.372;2022-11-25T12:21:00;13.63;;;5.03;;
12433;SDS011;6281;49.038;8.372;2022-11-25T12:23:31;9.80;;;5.50;;
12433;SDS011;6281;49.038;8.372;2022-11-25T12:26:10;11.43;;;5.87;;
12433;SDS011;6281;49.038;8.372;2022-11-25T12:28:44;9.63;;;5.03;;
12433;SDS011;6281;49.038;8.372;2022-11-25T12:31:18;14.60;;;6.97;;
12433;SDS011;6281;49.038;8.372;2022-11-25T12:33:53;9.00;;;5.33;;
12433;SDS011;6281;49.038;8.372;2022-11-25T12:36:27;8.57;;;4.93;;
12433;SDS011;6281;49.038;8.372;2022-11-25T12:38:59;8.97;;;4.80;;
12433;SDS011;6281;49.038;8.372;2022-11-25T12:41:31;11.27;;;5.93;;
12433;SDS011;6281;49.038;8.372;2022-11-25T12:44:06;13.27;;;6.17;;
12433;SDS011;6281;49.038;8.372;2022-11-25T12:46:40;11.57;;;6.73;;
12433;SDS011;6281;49.038;8.372;2022-11-25T12:49:12;9.43;;;5.27;;
12433;SDS011;6281;49.038;8.372;2022-11-25T12:51:51;11.50;;;5.60;;
12433;SDS011;6281;49.038;8.372;2022-11-25T12:57:44;11.37;;;5.47;;
12433;SDS011;6281;49.038;8.372;2022-11-25T13:00:36;11.53;;;5.47;;
12433;SDS011;6281;49.038;8.372;2022-11-25T13:03:33;11.43;;;5.53;;
12433;SDS011;6281;49.038;8.372;2022-11-25T13:06:23;9.57;;;5.03;;
12433;SDS011;6281;49.038;8.372;2022-11-25T13:09:02;8.63;;;4.47;;
12433;SDS011;6281;49.038;8.372;2022-11-25T13:11:47;9.00;;;4.93;;
12433;SDS011;6281;49.038;8.372;2022-11-25T13:14:27;11.93;;;5.03;;
12433;SDS011;6281;49.038;8.372;2022-11-25T13:17:10;6.90;;;3.90;;
12433;SDS011;6281;49.038;8.372;2022-11-25T13:19:40;8.50;;;4.37;;
12433;SDS011;6281;49.038;8.372;2022-11-25T13:22:22;10.80;;;4.70;;
12433;SDS011;6281;49.038;8.372;2022-11-25T13:24:53;8.27;;;4.63;;
12433;SDS011;6281;49.038;8.372;2022-11-25T13:27:29;8.83;;;4.13;;
12433;SDS011;6281;49.038;8.372;2022-11-25T13:29:59;12.70;;;4.40;;
12433;SDS011;6281;49.038;8.372;2022-11-25T13:32:28;8.60;;;5.07;;
12433;SDS011;6281;49.038;8.372;2022-11-25T13:38:34;9.20;;;4.80;;
12433;SDS011;6281;49.038;8.372;2022-11-25T13:41:20;8.67;;;4.43;;
12433;SDS011;6281;49.038;8.372;2022-11-25T13:43:56;9.70;;;4.63;;
12433;SDS011;6281;49.038;8.372;2022-11-25T13:46:28;8.43;;;3.87;;
12433;SDS011;6281;49.038;8.372;2022-11-25T13:49:03;8.03;;;3.87;;
12433;SDS011;6281;49.038;8.372;2022-11-25T13:51:31;8.07;;;4.30;;
12433;SDS011;6281;49.038;8.372;2022-11-25T13:53:59;11.13;;;4.10;;
12433;SDS011;6281;49.038;8.372;2022-11-25T13:56:28;11.60;;;4.63;;
12433;SDS011;6281;49.038;8.372;2022-11-25T14:05:02;9.40;;;3.77;;
12433;SDS011;6281;49.038;8.372;2022-11-25T14:07:40;7.73;;;3.80;;
12433;SDS011;6281;49.038;8.372;2022-11-25T14:10:25;8.17;;;3.10;;
12433;SDS011;6281;49.038;8.372;2022-11-25T14:13:06;9.87;;;4.00;;
12433;SDS011;6281;49.038;8.372;2022-11-25T14:15:52;9.27;;;3.73;;
12433;SDS011;6281;49.038;8.372;2022-11-25T14:18:34;9.73;;;3.37;;
12433;SDS011;6281;49.038;8.372;2022-11-25T14:21:15;7.67;;;3.40;;
12433;SDS011;6281;49.038;8.372;2022-11-25T14:23:55;8.83;;;4.13;;
12433;SDS011;6281;49.038;8.372;2022-11-25T14:26:30;8.90;;;3.53;;
12433;SDS011;6281;49.038;8.372;2022-11-25T14:29:02;8.60;;;3.13;;
12433;SDS011;6281;49.038;8.372;2022-11-25T14:31:33;6.00;;;3.73;;
12433;SDS011;6281;49.038;8.372;2022-11-25T14:34:07;9.73;;;3.87;;
12433;SDS011;6281;49.038;8.372;2022-11-25T14:36:39;10.97;;;3.90;;
12433;SDS011;6281;49.038;8.372;2022-11-25T14:39:13;10.17;;;4.80;;
12433;SDS011;6281;49.038;8.372;2022-11-25T14:41:46;9.83;;;4.90;;
12433;SDS011;6281;49.038;8.372;2022-11-25T14:44:21;9.57;;;3.70;;
12433;SDS011;6281;49.038;8.372;2022-11-25T14:46:54;8.37;;;3.33;;
12433;SDS011;6281;49.038;8.372;2022-11-25T14:49:24;7.93;;;3.17;;
12433;SDS011;6281;49.038;8.372;2022-11-25T14:52:16;10.60;;;3.90;;
12433;SDS011;6281;49.038;8.372;2022-11-25T14:54:46;10.97;;;3.80;;
12433;SDS011;6281;49.038;8.372;2022-11-25T14:57:18;8.17;;;3.63;;
12433;SDS011;6281;49.038;8.372;2022-11-25T14:59:47;4.43;;;2.80;;
12433;SDS011;6281;49.038;8.372;2022-11-25T15:05:16;7.40;;;3.43;;
12433;SDS011;6281;49.038;8.372;2022-11-25T15:07:52;11.27;;;4.43;;
12433;SDS011;6281;49.038;8.372;2022-11-25T15:10:33;10.27;;;4.10;;
12433;SDS011;6281;49.038;8.372;2022-11-25T15:13:07;10.90;;;4.70;;
12433;SDS011;6281;49.038;8.372;2022-11-25T15:15:38;10.30;;;3.73;;
12433;SDS011;6281;49.038;8.372;2022-11-25T15:18:05;8.40;;;3.20;;
12433;SDS011;6281;49.038;8.372;2022-11-25T15:20:36;6.47;;;3.87;;
12433;SDS011;6281;49.038;8.372;2022-11-25T15:23:03;7.53;;;3.60;;
12433;SDS011;6281;49.038;8.372;2022-11-25T15:25:31;10.10;;;3.80;;
12433;SDS011;6281;49.038;8.372;2022-11-25T15:27:58;8.67;;;4.13;;
12433;SDS011;6281;49.038;8.372;2022-11-25T15:30:26;6.30;;;3.47;;
12433;SDS011;6281;49.038;8.372;2022-11-25T15:32:54;12.03;;;4.40;;
12433;SDS011;6281;49.038;8.372;2022-11-25T15:35:22;8.33;;;3.77;;
12433;SDS011;6281;49.038;8.372;2022-11-25T15:37:52;7.67;;;4.10;;
12433;SDS011;6281;49.038;8.372;2022-11-25T15:40:29;6.27;;;3.87;;
12433;SDS011;6281;49.038;8.372;2022-11-25T15:43:02;8.77;;;4.23;;